sensor_id;sensor_type;location;lat;lon;timestamp;P1;durP1;ratioP1;P2;durP2;ratioP2
73980;SDS011;62348;51.412;5.436;2022-10-16T00:02:17;9.82;;;3.78;;
73980;SDS011;62348;51.412;5.436;2022-10-16T00:04:42;6.90;;;3.65;;
73980;SDS011;62348;51.412;5.436;2022-10-16T00:07:07;6.68;;;3.55;;
73980;SDS011;62348;51.412;5.436;2022-10-16T00:09:33;4.35;;;3.00;;
73980;SDS011;62348;51.412;5.436;2022-10-16T00:11:58;5.15;;;2.83;;
73980;SDS011;62348;51.412;5.436;2022-10-16T00:14:23;6.22;;;3.28;;
73980;SDS011;62348;51.412;5.436;2022-10-16T00:16:49;4.50;;;3.28;;
73980;SDS011;62348;51.412;5.436;2022-10-16T00:19:14;7.60;;;3.25;;
73980;SDS011;62348;51.412;5.436;2022-10-16T00:21:40;3.97;;;2.95;;
73980;SDS011;62348;51.412;5.436;2022-10-16T00:24:07;5.38;;;3.08;;
73980;SDS011;62348;51.412;5.436;2022-10-16T00:26:34;6.35;;;3.10;;
73980;SDS011;62348;51.412;5.436;2022-10-16T00:29:01;6.25;;;3.25;;
73980;SDS011;62348;51.412;5.436;2022-10-16T00:31:27;6.72;;;3.10;;
73980;SDS011;62348;51.412;5.436;2022-10-16T00:33:52;5.85;;;2.80;;
73980;SDS011;62348;51.412;5.436;2022-10-16T00:36:19;4.65;;;2.97;;
73980;SDS011;62348;51.412;5.436;2022-10-16T00:38:46;6.03;;;2.97;;
73980;SDS011;62348;51.412;5.436;2022-10-16T00:41:14;3.83;;;2.60;;
73980;SDS011;62348;51.412;5.436;2022-10-16T00:46:25;3.85;;;2.60;;
73980;SDS011;62348;51.412;5.436;2022-10-16T00:49:02;3.38;;;2.80;;
73980;SDS011;62348;51.412;5.436;2022-10-16T00:51:32;4.43;;;3.22;;
73980;SDS011;62348;51.412;5.436;2022-10-16T00:54:00;4.05;;;2.63;;
73980;SDS011;62348;51.412;5.436;2022-10-16T00:56:28;2.55;;;2.15;;
73980;SDS011;62348;51.412;5.436;2022-10-16T00:58:53;3.75;;;2.30;;
73980;SDS011;62348;51.412;5.436;2022-10-16T01:01:19;6.22;;;2.90;;
73980;SDS011;62348;51.412;5.436;2022-10-16T01:03:44;3.85;;;2.50;;
73980;SDS011;62348;51.412;5.436;2022-10-16T01:06:21;6.63;;;2.85;;
73980;SDS011;62348;51.412;5.436;2022-10-16T01:08:58;5.85;;;2.97;;
73980;SDS011;62348;51.412;5.436;2022-10-16T01:25:18;5.13;;;2.20;;
73980;SDS011;62348;51.412;5.436;2022-10-16T01:27:50;10.02;;;3.95;;
73980;SDS011;62348;51.412;5.436;2022-10-16T01:30:23;5.55;;;2.30;;
73980;SDS011;62348;51.412;5.436;2022-10-16T01:33:00;5.93;;;2.45;;
73980;SDS011;62348;51.412;5.436;2022-10-16T01:35:36;4.68;;;2.53;;
73980;SDS011;62348;51.412;5.436;2022-10-16T01:38:15;3.70;;;2.17;;
73980;SDS011;62348;51.412;5.436;2022-10-16T01:40:49;3.63;;;2.30;;
73980;SDS011;62348;51.412;5.436;2022-10-16T01:43:22;4.38;;;2.22;;
73980;SDS011;62348;51.412;5.436;2022-10-16T01:45:52;2.92;;;2.35;;
73980;SDS011;62348;51.412;5.436;2022-10-16T01:48:18;4.38;;;2.10;;
73980;SDS011;62348;51.412;5.436;2022-10-16T01:50:49;11.05;;;2.78;;
73980;SDS011;62348;51.412;5.436;2022-10-16T01:53:24;4.57;;;2.40;;
73980;SDS011;62348;51.412;5.436;2022-10-16T01:55:51;4.43;;;3.00;;
73980;SDS011;62348;51.412;5.436;2022-10-16T01:58:19;2.95;;;2.55;;
73980;SDS011;62348;51.412;5.436;2022-10-16T02:00:46;6.78;;;3.13;;
73980;SDS011;62348;51.412;5.436;2022-10-16T02:03:13;4.63;;;2.58;;
73980;SDS011;62348;51.412;5.436;2022-10-16T02:05:42;3.00;;;2.42;;
73980;SDS011;62348;51.412;5.436;2022-10-16T02:08:11;3.85;;;2.30;;
73980;SDS011;62348;51.412;5.436;2022-10-16T02:10:37;3.83;;;1.85;;
73980;SDS011;62348;51.412;5.436;2022-10-16T02:13:04;3.97;;;2.10;;
73980;SDS011;62348;51.412;5.436;2022-10-16T02:15:34;3.08;;;2.20;;
73980;SDS011;62348;51.412;5.436;2022-10-16T02:17:59;5.88;;;2.20;;
73980;SDS011;62348;51.412;5.436;2022-10-16T02:20:28;4.43;;;2.08;;
73980;SDS011;62348;51.412;5.436;2022-10-16T02:22:57;1.80;;;1.70;;
73980;SDS011;62348;51.412;5.436;2022-10-16T02:25:30;4.53;;;2.33;;
73980;SDS011;62348;51.412;5.436;2022-10-16T02:28:09;3.08;;;2.13;;
73980;SDS011;62348;51.412;5.436;2022-10-16T02:31:02;3.85;;;2.05;;
73980;SDS011;62348;51.412;5.436;2022-10-16T02:33:33;5.38;;;2.15;;
73980;SDS011;62348;51.412;5.436;2022-10-16T02:36:00;2.25;;;1.85;;
73980;SDS011;62348;51.412;5.436;2022-10-16T02:38:26;6.60;;;2.33;;
73980;SDS011;62348;51.412;5.436;2022-10-16T02:40:53;2.40;;;1.73;;
73980;SDS011;62348;51.412;5.436;2022-10-16T02:43:19;4.13;;;1.85;;
73980;SDS011;62348;51.412;5.436;2022-10-16T02:45:45;2.72;;;1.73;;
73980;SDS011;62348;51.412;5.436;2022-10-16T02:48:10;2.53;;;1.80;;
73980;SDS011;62348;51.412;5.436;2022-10-16T02:50:36;2.58;;;2.00;;
73980;SDS011;62348;51.412;5.436;2022-10-16T02:53:01;2.95;;;2.08;;
73980;SDS011;62348;51.412;5.436;2022-10-16T02:55:26;4.57;;;2.10;;
73980;SDS011;62348;51.412;5.436;2022-10-16T02:57:53;2.10;;;1.83;;
73980;SDS011;62348;51.412;5.436;2022-10-16T03:00:19;5.32;;;2.17;;
73980;SDS011;62348;51.412;5.436;2022-10-16T03:02:45;10.20;;;2.28;;
73980;SDS011;62348;51.412;5.436;2022-10-16T03:05:11;3.35;;;1.88;;
73980;SDS011;62348;51.412;5.436;2022-10-16T03:07:37;5.90;;;1.98;;
73980;SDS011;62348;51.412;5.436;2022-10-16T03:10:02;2.45;;;1.98;;
73980;SDS011;62348;51.412;5.436;2022-10-16T03:12:28;4.80;;;2.05;;
73980;SDS011;62348;51.412;5.436;2022-10-16T03:14:54;2.80;;;2.38;;
73980;SDS011;62348;51.412;5.436;2022-10-16T03:17:21;2.47;;;1.92;;
73980;SDS011;62348;51.412;5.436;2022-10-16T03:19:47;3.53;;;2.30;;
73980;SDS011;62348;51.412;5.436;2022-10-16T03:22:12;2.38;;;1.70;;
73980;SDS011;62348;51.412;5.436;2022-10-16T03:24:38;6.72;;;2.50;;
73980;SDS011;62348;51.412;5.436;2022-10-16T03:27:03;2.22;;;2.03;;
73980;SDS011;62348;51.412;5.436;2022-10-16T03:29:29;4.97;;;2.25;;
73980;SDS011;62348;51.412;5.436;2022-10-16T03:31:55;4.55;;;2.05;;
73980;SDS011;62348;51.412;5.436;2022-10-16T03:34:21;5.13;;;1.98;;
73980;SDS011;62348;51.412;5.436;2022-10-16T03:36:46;4.68;;;2.00;;
73980;SDS011;62348;51.412;5.436;2022-10-16T03:39:12;2.28;;;1.80;;
73980;SDS011;62348;51.412;5.436;2022-10-16T03:41:37;3.75;;;1.65;;
73980;SDS011;62348;51.412;5.436;2022-10-16T03:44:02;3.30;;;1.88;;
73980;SDS011;62348;51.412;5.436;2022-10-16T03:46:28;4.15;;;1.92;;
73980;SDS011;62348;51.412;5.436;2022-10-16T03:48:54;4.03;;;1.98;;
73980;SDS011;62348;51.412;5.436;2022-10-16T03:51:19;2.22;;;1.65;;
73980;SDS011;62348;51.412;5.436;2022-10-16T03:53:45;2.05;;;1.77;;
73980;SDS011;62348;51.412;5.436;2022-10-16T03:56:10;3.03;;;1.80;;
73980;SDS011;62348;51.412;5.436;2022-10-16T03:58:35;2.72;;;1.90;;
73980;SDS011;62348;51.412;5.436;2022-10-16T04:01:01;4.75;;;2.03;;
73980;SDS011;62348;51.412;5.436;2022-10-16T04:03:26;2.70;;;2.00;;
73980;SDS011;62348;51.412;5.436;2022-10-16T04:05:52;3.80;;;2.42;;
73980;SDS011;62348;51.412;5.436;2022-10-16T04:08:17;18.08;;;2.00;;
73980;SDS011;62348;51.412;5.436;2022-10-16T04:10:43;3.58;;;1.90;;
73980;SDS011;62348;51.412;5.436;2022-10-16T04:13:09;2.53;;;1.90;;
73980;SDS011;62348;51.412;5.436;2022-10-16T04:15:34;3.05;;;1.80;;
73980;SDS011;62348;51.412;5.436;2022-10-16T04:18:00;2.65;;;2.38;;
73980;SDS011;62348;51.412;5.436;2022-10-16T04:20:25;2.97;;;2.30;;
73980;SDS011;62348;51.412;5.436;2022-10-16T04:22:51;4.22;;;2.10;;
73980;SDS011;62348;51.412;5.436;2022-10-16T04:25:16;2.78;;;2.10;;
73980;SDS011;62348;51.412;5.436;2022-10-16T04:27:42;9.00;;;2.40;;
73980;SDS011;62348;51.412;5.436;2022-10-16T04:30:07;3.85;;;2.13;;
73980;SDS011;62348;51.412;5.436;2022-10-16T04:32:33;4.80;;;2.50;;
73980;SDS011;62348;51.412;5.436;2022-10-16T04:34:58;4.30;;;2.60;;
73980;SDS011;62348;51.412;5.436;2022-10-16T04:37:24;4.50;;;2.72;;
73980;SDS011;62348;51.412;5.436;2022-10-16T04:39:50;4.28;;;2.60;;
73980;SDS011;62348;51.412;5.436;2022-10-16T04:42:16;4.80;;;2.60;;
73980;SDS011;62348;51.412;5.436;2022-10-16T04:44:41;3.35;;;2.33;;
73980;SDS011;62348;51.412;5.436;2022-10-16T04:47:06;3.25;;;2.67;;
73980;SDS011;62348;51.412;5.436;2022-10-16T04:49:32;5.30;;;2.45;;
73980;SDS011;62348;51.412;5.436;2022-10-16T04:51:58;5.07;;;2.80;;
73980;SDS011;62348;51.412;5.436;2022-10-16T04:54:23;4.30;;;2.53;;
73980;SDS011;62348;51.412;5.436;2022-10-16T04:56:49;7.00;;;2.80;;
73980;SDS011;62348;51.412;5.436;2022-10-16T04:59:16;5.32;;;3.08;;
73980;SDS011;62348;51.412;5.436;2022-10-16T05:01:43;5.93;;;3.33;;
73980;SDS011;62348;51.412;5.436;2022-10-16T05:04:08;4.65;;;2.38;;
73980;SDS011;62348;51.412;5.436;2022-10-16T05:06:34;3.42;;;2.95;;
73980;SDS011;62348;51.412;5.436;2022-10-16T05:08:59;5.28;;;2.00;;
73980;SDS011;62348;51.412;5.436;2022-10-16T05:11:25;7.18;;;2.45;;
73980;SDS011;62348;51.412;5.436;2022-10-16T05:13:50;2.83;;;2.22;;
73980;SDS011;62348;51.412;5.436;2022-10-16T05:16:15;2.67;;;2.20;;
73980;SDS011;62348;51.412;5.436;2022-10-16T05:18:41;2.92;;;2.20;;
73980;SDS011;62348;51.412;5.436;2022-10-16T05:21:06;4.30;;;2.00;;
73980;SDS011;62348;51.412;5.436;2022-10-16T05:23:32;12.55;;;2.47;;
73980;SDS011;62348;51.412;5.436;2022-10-16T05:25:58;4.20;;;2.20;;
73980;SDS011;62348;51.412;5.436;2022-10-16T05:28:25;3.40;;;2.00;;
73980;SDS011;62348;51.412;5.436;2022-10-16T05:30:51;7.57;;;2.67;;
73980;SDS011;62348;51.412;5.436;2022-10-16T05:33:16;4.40;;;2.00;;
73980;SDS011;62348;51.412;5.436;2022-10-16T05:35:42;2.42;;;2.15;;
73980;SDS011;62348;51.412;5.436;2022-10-16T05:38:08;3.88;;;2.30;;
73980;SDS011;62348;51.412;5.436;2022-10-16T05:40:34;6.82;;;2.28;;
73980;SDS011;62348;51.412;5.436;2022-10-16T05:43:00;4.25;;;2.40;;
73980;SDS011;62348;51.412;5.436;2022-10-16T05:45:25;6.30;;;2.53;;
73980;SDS011;62348;51.412;5.436;2022-10-16T05:47:51;3.78;;;2.38;;
73980;SDS011;62348;51.412;5.436;2022-10-16T05:50:16;4.60;;;2.60;;
73980;SDS011;62348;51.412;5.436;2022-10-16T05:52:41;4.53;;;2.67;;
73980;SDS011;62348;51.412;5.436;2022-10-16T05:55:07;5.20;;;2.40;;
73980;SDS011;62348;51.412;5.436;2022-10-16T05:57:33;4.65;;;2.40;;
73980;SDS011;62348;51.412;5.436;2022-10-16T05:59:58;6.05;;;2.72;;
73980;SDS011;62348;51.412;5.436;2022-10-16T06:02:23;5.32;;;2.80;;
73980;SDS011;62348;51.412;5.436;2022-10-16T06:04:51;4.72;;;2.72;;
73980;SDS011;62348;51.412;5.436;2022-10-16T06:07:18;3.50;;;2.78;;
73980;SDS011;62348;51.412;5.436;2022-10-16T06:09:44;4.30;;;2.42;;
73980;SDS011;62348;51.412;5.436;2022-10-16T06:12:12;3.70;;;3.28;;
73980;SDS011;62348;51.412;5.436;2022-10-16T06:14:38;10.05;;;3.00;;
73980;SDS011;62348;51.412;5.436;2022-10-16T06:17:03;5.05;;;2.85;;
73980;SDS011;62348;51.412;5.436;2022-10-16T06:19:28;6.03;;;3.50;;
73980;SDS011;62348;51.412;5.436;2022-10-16T06:21:54;4.10;;;3.60;;
73980;SDS011;62348;51.412;5.436;2022-10-16T06:24:19;9.55;;;3.60;;
73980;SDS011;62348;51.412;5.436;2022-10-16T06:26:44;5.15;;;3.63;;
73980;SDS011;62348;51.412;5.436;2022-10-16T06:29:10;5.32;;;3.60;;
73980;SDS011;62348;51.412;5.436;2022-10-16T06:31:35;5.07;;;2.88;;
73980;SDS011;62348;51.412;5.436;2022-10-16T06:34:01;5.15;;;3.97;;
73980;SDS011;62348;51.412;5.436;2022-10-16T06:36:27;4.95;;;3.40;;
73980;SDS011;62348;51.412;5.436;2022-10-16T06:38:52;6.72;;;3.30;;
73980;SDS011;62348;51.412;5.436;2022-10-16T06:41:19;8.88;;;3.50;;
73980;SDS011;62348;51.412;5.436;2022-10-16T06:43:46;6.80;;;3.53;;
73980;SDS011;62348;51.412;5.436;2022-10-16T06:46:12;6.57;;;3.47;;
73980;SDS011;62348;51.412;5.436;2022-10-16T06:48:40;5.55;;;3.20;;
73980;SDS011;62348;51.412;5.436;2022-10-16T06:51:10;7.05;;;4.03;;
73980;SDS011;62348;51.412;5.436;2022-10-16T06:53:36;5.38;;;3.78;;
73980;SDS011;62348;51.412;5.436;2022-10-16T06:56:22;5.68;;;4.20;;
73980;SDS011;62348;51.412;5.436;2022-10-16T06:58:49;8.23;;;3.42;;
73980;SDS011;62348;51.412;5.436;2022-10-16T07:01:16;6.30;;;3.83;;
73980;SDS011;62348;51.412;5.436;2022-10-16T07:03:43;9.70;;;4.85;;
73980;SDS011;62348;51.412;5.436;2022-10-16T07:06:11;6.75;;;3.60;;
73980;SDS011;62348;51.412;5.436;2022-10-16T07:08:38;4.55;;;3.10;;
73980;SDS011;62348;51.412;5.436;2022-10-16T07:11:08;6.78;;;3.15;;
73980;SDS011;62348;51.412;5.436;2022-10-16T07:13:35;4.55;;;3.22;;
73980;SDS011;62348;51.412;5.436;2022-10-16T07:18:34;6.35;;;3.28;;
73980;SDS011;62348;51.412;5.436;2022-10-16T07:21:03;4.45;;;3.50;;
73980;SDS011;62348;51.412;5.436;2022-10-16T07:23:33;8.57;;;3.53;;
73980;SDS011;62348;51.412;5.436;2022-10-16T07:25:59;5.78;;;3.30;;
73980;SDS011;62348;51.412;5.436;2022-10-16T07:28:25;5.88;;;3.38;;
73980;SDS011;62348;51.412;5.436;2022-10-16T07:30:50;4.43;;;3.58;;
73980;SDS011;62348;51.412;5.436;2022-10-16T07:33:16;7.53;;;2.97;;
73980;SDS011;62348;51.412;5.436;2022-10-16T07:35:53;7.05;;;3.50;;
73980;SDS011;62348;51.412;5.436;2022-10-16T07:38:20;7.15;;;3.58;;
73980;SDS011;62348;51.412;5.436;2022-10-16T07:40:46;5.68;;;2.80;;
73980;SDS011;62348;51.412;5.436;2022-10-16T07:43:12;3.72;;;2.70;;
73980;SDS011;62348;51.412;5.436;2022-10-16T07:45:38;4.20;;;2.83;;
73980;SDS011;62348;51.412;5.436;2022-10-16T07:48:12;5.22;;;2.90;;
73980;SDS011;62348;51.412;5.436;2022-10-16T07:50:37;8.13;;;2.55;;
73980;SDS011;62348;51.412;5.436;2022-10-16T07:53:03;6.65;;;3.15;;
73980;SDS011;62348;51.412;5.436;2022-10-16T07:55:29;9.05;;;3.10;;
73980;SDS011;62348;51.412;5.436;2022-10-16T07:57:54;4.22;;;2.42;;
73980;SDS011;62348;51.412;5.436;2022-10-16T08:00:20;8.38;;;2.65;;
73980;SDS011;62348;51.412;5.436;2022-10-16T08:02:45;6.28;;;2.10;;
73980;SDS011;62348;51.412;5.436;2022-10-16T08:05:10;5.32;;;2.03;;
73980;SDS011;62348;51.412;5.436;2022-10-16T08:07:36;3.70;;;2.08;;
73980;SDS011;62348;51.412;5.436;2022-10-16T08:10:01;3.20;;;2.40;;
73980;SDS011;62348;51.412;5.436;2022-10-16T08:12:28;6.40;;;2.35;;
73980;SDS011;62348;51.412;5.436;2022-10-16T08:14:53;6.05;;;2.00;;
73980;SDS011;62348;51.412;5.436;2022-10-16T08:17:18;5.40;;;2.53;;
73980;SDS011;62348;51.412;5.436;2022-10-16T08:19:44;6.28;;;2.13;;
73980;SDS011;62348;51.412;5.436;2022-10-16T08:22:10;5.40;;;1.95;;
73980;SDS011;62348;51.412;5.436;2022-10-16T08:24:36;4.47;;;2.20;;
73980;SDS011;62348;51.412;5.436;2022-10-16T08:27:02;5.40;;;2.25;;
73980;SDS011;62348;51.412;5.436;2022-10-16T08:29:27;3.08;;;1.77;;
73980;SDS011;62348;51.412;5.436;2022-10-16T08:31:53;7.13;;;2.10;;
73980;SDS011;62348;51.412;5.436;2022-10-16T08:34:18;6.68;;;2.58;;
73980;SDS011;62348;51.412;5.436;2022-10-16T08:36:44;2.47;;;1.88;;
73980;SDS011;62348;51.412;5.436;2022-10-16T08:39:09;5.20;;;1.98;;
73980;SDS011;62348;51.412;5.436;2022-10-16T08:47:13;6.40;;;2.00;;
73980;SDS011;62348;51.412;5.436;2022-10-16T08:50:08;5.75;;;1.67;;
73980;SDS011;62348;51.412;5.436;2022-10-16T08:52:38;5.82;;;2.03;;
73980;SDS011;62348;51.412;5.436;2022-10-16T08:55:09;4.90;;;1.65;;
73980;SDS011;62348;51.412;5.436;2022-10-16T08:57:49;3.25;;;1.58;;
73980;SDS011;62348;51.412;5.436;2022-10-16T09:00:15;5.63;;;1.70;;
73980;SDS011;62348;51.412;5.436;2022-10-16T09:02:45;5.75;;;1.77;;
73980;SDS011;62348;51.412;5.436;2022-10-16T09:05:23;7.32;;;1.77;;
73980;SDS011;62348;51.412;5.436;2022-10-16T09:11:35;10.98;;;1.75;;
73980;SDS011;62348;51.412;5.436;2022-10-16T09:13:48;1.95;;;1.20;;
73980;SDS011;62348;51.412;5.436;2022-10-16T09:16:28;6.65;;;1.90;;
73980;SDS011;62348;51.412;5.436;2022-10-16T09:19:01;4.07;;;1.23;;
73980;SDS011;62348;51.412;5.436;2022-10-16T09:21:36;11.90;;;2.55;;
73980;SDS011;62348;51.412;5.436;2022-10-16T09:24:17;2.92;;;1.55;;
73980;SDS011;62348;51.412;5.436;2022-10-16T09:26:45;4.32;;;1.48;;
73980;SDS011;62348;51.412;5.436;2022-10-16T09:29:12;3.70;;;1.30;;
73980;SDS011;62348;51.412;5.436;2022-10-16T09:31:42;3.95;;;1.42;;
73980;SDS011;62348;51.412;5.436;2022-10-16T09:34:51;5.82;;;1.88;;
73980;SDS011;62348;51.412;5.436;2022-10-16T09:37:05;8.73;;;2.17;;
73980;SDS011;62348;51.412;5.436;2022-10-16T09:39:44;4.05;;;1.65;;
73980;SDS011;62348;51.412;5.436;2022-10-16T09:42:23;6.68;;;1.38;;
73980;SDS011;62348;51.412;5.436;2022-10-16T09:44:51;6.10;;;1.40;;
73980;SDS011;62348;51.412;5.436;2022-10-16T09:47:19;6.25;;;1.48;;
73980;SDS011;62348;51.412;5.436;2022-10-16T09:52:26;4.70;;;1.67;;
73980;SDS011;62348;51.412;5.436;2022-10-16T09:54:52;4.78;;;1.55;;
73980;SDS011;62348;51.412;5.436;2022-10-16T09:57:20;10.10;;;1.40;;
73980;SDS011;62348;51.412;5.436;2022-10-16T09:59:53;7.10;;;1.40;;
73980;SDS011;62348;51.412;5.436;2022-10-16T10:02:24;3.55;;;1.45;;
73980;SDS011;62348;51.412;5.436;2022-10-16T10:04:53;7.00;;;1.92;;
73980;SDS011;62348;51.412;5.436;2022-10-16T10:07:21;5.15;;;2.08;;
73980;SDS011;62348;51.412;5.436;2022-10-16T10:09:53;4.43;;;1.20;;
73980;SDS011;62348;51.412;5.436;2022-10-16T10:12:25;7.55;;;1.73;;
73980;SDS011;62348;51.412;5.436;2022-10-16T10:14:53;8.98;;;1.95;;
73980;SDS011;62348;51.412;5.436;2022-10-16T10:17:25;4.88;;;1.83;;
73980;SDS011;62348;51.412;5.436;2022-10-16T10:22:22;6.47;;;1.60;;
73980;SDS011;62348;51.412;5.436;2022-10-16T10:24:56;5.88;;;1.40;;
73980;SDS011;62348;51.412;5.436;2022-10-16T10:27:48;5.53;;;2.03;;
73980;SDS011;62348;51.412;5.436;2022-10-16T10:43:42;6.70;;;1.35;;
73980;SDS011;62348;51.412;5.436;2022-10-16T10:57:25;4.78;;;2.15;;
73980;SDS011;62348;51.412;5.436;2022-10-16T11:10:24;10.85;;;1.92;;
73980;SDS011;62348;51.412;5.436;2022-10-16T11:15:57;6.93;;;1.73;;
73980;SDS011;62348;51.412;5.436;2022-10-16T11:18:43;10.88;;;1.75;;
73980;SDS011;62348;51.412;5.436;2022-10-16T11:21:15;5.85;;;1.80;;
73980;SDS011;62348;51.412;5.436;2022-10-16T11:23:51;7.55;;;1.77;;
73980;SDS011;62348;51.412;5.436;2022-10-16T11:26:34;9.13;;;1.95;;
73980;SDS011;62348;51.412;5.436;2022-10-16T11:29:03;6.70;;;1.73;;
73980;SDS011;62348;51.412;5.436;2022-10-16T11:31:42;8.68;;;2.00;;
73980;SDS011;62348;51.412;5.436;2022-10-16T11:36:51;9.40;;;2.13;;
73980;SDS011;62348;51.412;5.436;2022-10-16T11:42:05;8.38;;;1.63;;
73980;SDS011;62348;51.412;5.436;2022-10-16T11:53:03;7.65;;;1.73;;
73980;SDS011;62348;51.412;5.436;2022-10-16T11:55:36;8.70;;;1.88;;
73980;SDS011;62348;51.412;5.436;2022-10-16T12:03:33;8.50;;;1.92;;
73980;SDS011;62348;51.412;5.436;2022-10-16T12:11:47;12.75;;;1.70;;
73980;SDS011;62348;51.412;5.436;2022-10-16T12:16:39;8.63;;;1.98;;
73980;SDS011;62348;51.412;5.436;2022-10-16T12:19:15;7.97;;;1.95;;
73980;SDS011;62348;51.412;5.436;2022-10-16T12:21:42;7.00;;;1.45;;
73980;SDS011;62348;51.412;5.436;2022-10-16T12:24:31;6.03;;;1.58;;
73980;SDS011;62348;51.412;5.436;2022-10-16T12:26:59;5.50;;;1.20;;
73980;SDS011;62348;51.412;5.436;2022-10-16T12:29:37;10.00;;;2.25;;
73980;SDS011;62348;51.412;5.436;2022-10-16T12:32:27;6.25;;;1.98;;
73980;SDS011;62348;51.412;5.436;2022-10-16T12:35:05;5.20;;;1.40;;
73980;SDS011;62348;51.412;5.436;2022-10-16T12:37:42;7.00;;;1.83;;
73980;SDS011;62348;51.412;5.436;2022-10-16T12:40:22;6.95;;;2.03;;
73980;SDS011;62348;51.412;5.436;2022-10-16T12:42:51;5.70;;;2.47;;
73980;SDS011;62348;51.412;5.436;2022-10-16T12:45:37;3.60;;;1.23;;
73980;SDS011;62348;51.412;5.436;2022-10-16T12:48:04;6.10;;;1.30;;
73980;SDS011;62348;51.412;5.436;2022-10-16T12:50:43;5.15;;;1.48;;
73980;SDS011;62348;51.412;5.436;2022-10-16T12:53:17;10.25;;;1.60;;
73980;SDS011;62348;51.412;5.436;2022-10-16T12:58:32;5.03;;;1.05;;
73980;SDS011;62348;51.412;5.436;2022-10-16T13:06:38;9.68;;;1.40;;
73980;SDS011;62348;51.412;5.436;2022-10-16T13:25:40;3.67;;;1.35;;
73980;SDS011;62348;51.412;5.436;2022-10-16T13:28:22;3.15;;;1.10;;
73980;SDS011;62348;51.412;5.436;2022-10-16T13:30:54;6.45;;;1.70;;
73980;SDS011;62348;51.412;5.436;2022-10-16T13:33:31;6.90;;;1.45;;
73980;SDS011;62348;51.412;5.436;2022-10-16T13:36:01;6.47;;;1.58;;
73980;SDS011;62348;51.412;5.436;2022-10-16T13:38:28;2.42;;;1.23;;
73980;SDS011;62348;51.412;5.436;2022-10-16T13:41:01;8.50;;;1.27;;
73980;SDS011;62348;51.412;5.436;2022-10-16T13:43:36;3.70;;;1.23;;
73980;SDS011;62348;51.412;5.436;2022-10-16T13:51:25;3.72;;;1.17;;
73980;SDS011;62348;51.412;5.436;2022-10-16T13:53:50;5.25;;;1.02;;
73980;SDS011;62348;51.412;5.436;2022-10-16T13:56:17;5.55;;;1.50;;
73980;SDS011;62348;51.412;5.436;2022-10-16T13:58:44;5.85;;;1.17;;
73980;SDS011;62348;51.412;5.436;2022-10-16T14:01:16;3.22;;;1.10;;
73980;SDS011;62348;51.412;5.436;2022-10-16T14:06:14;4.95;;;1.73;;
73980;SDS011;62348;51.412;5.436;2022-10-16T14:08:43;2.88;;;1.00;;
73980;SDS011;62348;51.412;5.436;2022-10-16T14:11:13;5.00;;;1.55;;
73980;SDS011;62348;51.412;5.436;2022-10-16T14:13:46;4.70;;;1.40;;
73980;SDS011;62348;51.412;5.436;2022-10-16T14:16:25;5.22;;;1.33;;
73980;SDS011;62348;51.412;5.436;2022-10-16T14:19:01;5.25;;;1.15;;
73980;SDS011;62348;51.412;5.436;2022-10-16T14:21:30;3.33;;;1.23;;
73980;SDS011;62348;51.412;5.436;2022-10-16T14:23:57;3.33;;;1.38;;
73980;SDS011;62348;51.412;5.436;2022-10-16T14:26:23;8.18;;;1.95;;
73980;SDS011;62348;51.412;5.436;2022-10-16T14:31:59;3.38;;;1.40;;
73980;SDS011;62348;51.412;5.436;2022-10-16T14:34:36;4.60;;;1.15;;
73980;SDS011;62348;51.412;5.436;2022-10-16T14:39:39;6.68;;;1.85;;
73980;SDS011;62348;51.412;5.436;2022-10-16T14:42:11;5.25;;;1.50;;
73980;SDS011;62348;51.412;5.436;2022-10-16T14:44:42;3.20;;;1.33;;
73980;SDS011;62348;51.412;5.436;2022-10-16T14:47:08;4.05;;;1.17;;
73980;SDS011;62348;51.412;5.436;2022-10-16T14:49:38;2.42;;;1.13;;
73980;SDS011;62348;51.412;5.436;2022-10-16T14:52:12;4.78;;;1.33;;
73980;SDS011;62348;51.412;5.436;2022-10-16T14:54:38;4.65;;;1.33;;
73980;SDS011;62348;51.412;5.436;2022-10-16T14:57:03;3.50;;;1.48;;
73980;SDS011;62348;51.412;5.436;2022-10-16T15:02:08;5.85;;;1.83;;
73980;SDS011;62348;51.412;5.436;2022-10-16T15:07:10;4.93;;;1.27;;
73980;SDS011;62348;51.412;5.436;2022-10-16T15:09:36;3.80;;;1.30;;
73980;SDS011;62348;51.412;5.436;2022-10-16T15:12:01;3.17;;;1.83;;
73980;SDS011;62348;51.412;5.436;2022-10-16T15:14:26;2.50;;;1.30;;
73980;SDS011;62348;51.412;5.436;2022-10-16T15:16:52;5.07;;;1.30;;
73980;SDS011;62348;51.412;5.436;2022-10-16T15:19:17;5.30;;;1.15;;
73980;SDS011;62348;51.412;5.436;2022-10-16T15:21:43;6.60;;;1.20;;
73980;SDS011;62348;51.412;5.436;2022-10-16T15:24:09;2.67;;;1.40;;
73980;SDS011;62348;51.412;5.436;2022-10-16T15:26:37;3.13;;;1.30;;
73980;SDS011;62348;51.412;5.436;2022-10-16T15:29:03;3.08;;;1.52;;
73980;SDS011;62348;51.412;5.436;2022-10-16T15:31:28;4.07;;;1.40;;
73980;SDS011;62348;51.412;5.436;2022-10-16T15:33:54;7.63;;;2.08;;
73980;SDS011;62348;51.412;5.436;2022-10-16T15:36:29;6.80;;;1.77;;
73980;SDS011;62348;51.412;5.436;2022-10-16T15:39:01;2.88;;;1.30;;
73980;SDS011;62348;51.412;5.436;2022-10-16T15:41:36;2.38;;;1.27;;
73980;SDS011;62348;51.412;5.436;2022-10-16T15:44:01;3.33;;;1.27;;
73980;SDS011;62348;51.412;5.436;2022-10-16T15:46:26;5.22;;;1.85;;
73980;SDS011;62348;51.412;5.436;2022-10-16T15:48:55;2.00;;;1.02;;
73980;SDS011;62348;51.412;5.436;2022-10-16T15:51:22;1.85;;;1.00;;
73980;SDS011;62348;51.412;5.436;2022-10-16T15:53:47;2.63;;;1.23;;
73980;SDS011;62348;51.412;5.436;2022-10-16T15:56:13;4.25;;;1.50;;
73980;SDS011;62348;51.412;5.436;2022-10-16T15:58:39;3.20;;;1.42;;
73980;SDS011;62348;51.412;5.436;2022-10-16T16:01:05;4.35;;;2.03;;
73980;SDS011;62348;51.412;5.436;2022-10-16T16:03:32;3.33;;;2.15;;
73980;SDS011;62348;51.412;5.436;2022-10-16T16:05:58;5.40;;;2.00;;
73980;SDS011;62348;51.412;5.436;2022-10-16T16:08:28;6.32;;;2.00;;
73980;SDS011;62348;51.412;5.436;2022-10-16T16:10:57;3.90;;;1.92;;
73980;SDS011;62348;51.412;5.436;2022-10-16T16:13:23;8.48;;;2.05;;
73980;SDS011;62348;51.412;5.436;2022-10-16T16:15:49;5.65;;;1.95;;
73980;SDS011;62348;51.412;5.436;2022-10-16T16:18:14;6.40;;;2.00;;
73980;SDS011;62348;51.412;5.436;2022-10-16T16:20:39;4.20;;;2.00;;
73980;SDS011;62348;51.412;5.436;2022-10-16T16:23:05;4.57;;;1.50;;
73980;SDS011;62348;51.412;5.436;2022-10-16T16:25:30;5.93;;;3.20;;
73980;SDS011;62348;51.412;5.436;2022-10-16T16:27:56;4.60;;;1.90;;
73980;SDS011;62348;51.412;5.436;2022-10-16T16:30:21;7.85;;;2.10;;
73980;SDS011;62348;51.412;5.436;2022-10-16T16:32:46;4.35;;;1.60;;
73980;SDS011;62348;51.412;5.436;2022-10-16T16:35:12;5.82;;;2.05;;
73980;SDS011;62348;51.412;5.436;2022-10-16T16:37:37;2.80;;;1.52;;
73980;SDS011;62348;51.412;5.436;2022-10-16T16:40:03;3.42;;;1.80;;
73980;SDS011;62348;51.412;5.436;2022-10-16T16:42:28;4.68;;;1.67;;
73980;SDS011;62348;51.412;5.436;2022-10-16T16:44:54;5.60;;;2.00;;
73980;SDS011;62348;51.412;5.436;2022-10-16T16:47:19;4.50;;;1.85;;
73980;SDS011;62348;51.412;5.436;2022-10-16T16:49:45;2.95;;;1.90;;
73980;SDS011;62348;51.412;5.436;2022-10-16T16:52:11;6.47;;;2.00;;
73980;SDS011;62348;51.412;5.436;2022-10-16T16:54:38;4.72;;;1.90;;
73980;SDS011;62348;51.412;5.436;2022-10-16T16:57:03;4.20;;;2.15;;
73980;SDS011;62348;51.412;5.436;2022-10-16T16:59:29;5.65;;;2.22;;
73980;SDS011;62348;51.412;5.436;2022-10-16T17:01:57;5.30;;;2.35;;
73980;SDS011;62348;51.412;5.436;2022-10-16T17:04:23;4.05;;;2.42;;
73980;SDS011;62348;51.412;5.436;2022-10-16T17:06:49;3.17;;;2.13;;
73980;SDS011;62348;51.412;5.436;2022-10-16T17:09:14;5.93;;;2.38;;
73980;SDS011;62348;51.412;5.436;2022-10-16T17:11:40;4.38;;;2.55;;
73980;SDS011;62348;51.412;5.436;2022-10-16T17:14:08;5.35;;;2.30;;
73980;SDS011;62348;51.412;5.436;2022-10-16T17:16:35;4.18;;;3.10;;
73980;SDS011;62348;51.412;5.436;2022-10-16T17:19:06;5.38;;;2.67;;